Etusivu
METAR-TAF:

METAR-TAF

Lentoasemat :

Pryor Field Regional Airport

Decatur, Alabama, Yhdysvallat

Leveyspiiri: 34-39-29N, Pituuspiiri: 086-56-36W, korkeus merenpinnasta: 180 m

Tämänhetkinen sää

Tämä raportti tehtiin 54 minuuttia sitten, kello 10.53 UTC
Tuuli 4 kn kaakosta
Lämpötila 7°C
Kosteus 87%
Ilmanpaine 1017 hPa
Näkyvyys: 4.8 km
Pilvistä 3600 ft:n korkeudessa
heikkoa sadetta, utua

METAR: KDCU 241053Z AUTO 13004KT 3SM -RA BR OVC036 07/05 A3002 RMK AO2 SLP165 P0003 T00670050 $

Aika: 05:47 (11:47 UTC)


TAF: puuttuu

Säähavainnot ja -ennusteet yli 4000 lentoasemalta (METAR- ja TAF-raportit).

Käytössä olevat sääasemat on merkitty karttaan keltaisilla ja punaisilla pisteillä.

Aseta hiiri pisteen päälle nähdäksesi sääaseman nimen.

Klikkaa sitten nähdäksesi säähavainnot ja -ennusteet.

Kartan vaihtaminen: klikkaa mustalla rastilla varustettuja vihreitä pisteitä, niin voit zoomata sisään; viivalla varustettua vihreää pistettä, niin voit zoomata ulos tai vihreitä nuolia, niin pääset viereisille kartoille.


METAR-TAF: